sensor_id;sensor_type;location;lat;lon;timestamp;P1;durP1;ratioP1;P2;durP2;ratioP2
19038;SDS011;9652;49.014;12.052;2023-03-12T00:00:21;5.77;;;5.37;;
19038;SDS011;9652;49.014;12.052;2023-03-12T00:02:48;5.53;;;4.93;;
19038;SDS011;9652;49.014;12.052;2023-03-12T00:05:16;5.70;;;5.20;;
19038;SDS011;9652;49.014;12.052;2023-03-12T00:07:43;5.70;;;5.20;;
19038;SDS011;9652;49.014;12.052;2023-03-12T00:10:11;6.13;;;5.63;;
19038;SDS011;9652;49.014;12.052;2023-03-12T00:12:39;5.87;;;5.30;;
19038;SDS011;9652;49.014;12.052;2023-03-12T00:15:06;6.00;;;5.40;;
19038;SDS011;9652;49.014;12.052;2023-03-12T00:17:35;5.03;;;4.53;;
19038;SDS011;9652;49.014;12.052;2023-03-12T00:20:02;5.93;;;5.43;;
19038;SDS011;9652;49.014;12.052;2023-03-12T00:22:31;6.23;;;5.63;;
19038;SDS011;9652;49.014;12.052;2023-03-12T00:24:58;5.40;;;4.90;;
19038;SDS011;9652;49.014;12.052;2023-03-12T00:27:27;5.20;;;4.80;;
19038;SDS011;9652;49.014;12.052;2023-03-12T00:29:54;5.27;;;4.87;;
19038;SDS011;9652;49.014;12.052;2023-03-12T00:32:21;4.20;;;3.80;;
19038;SDS011;9652;49.014;12.052;2023-03-12T00:34:50;4.87;;;4.47;;
19038;SDS011;9652;49.014;12.052;2023-03-12T00:37:19;6.00;;;5.53;;
19038;SDS011;9652;49.014;12.052;2023-03-12T00:39:47;5.43;;;5.03;;
19038;SDS011;9652;49.014;12.052;2023-03-12T00:42:14;5.63;;;5.23;;
19038;SDS011;9652;49.014;12.052;2023-03-12T00:44:43;4.93;;;4.20;;
19038;SDS011;9652;49.014;12.052;2023-03-12T00:47:10;5.33;;;4.80;;
19038;SDS011;9652;49.014;12.052;2023-03-12T00:49:38;4.93;;;4.43;;
19038;SDS011;9652;49.014;12.052;2023-03-12T00:52:06;4.83;;;4.43;;
19038;SDS011;9652;49.014;12.052;2023-03-12T00:54:33;5.03;;;4.63;;
19038;SDS011;9652;49.014;12.052;2023-03-12T00:57:00;5.03;;;4.63;;
19038;SDS011;9652;49.014;12.052;2023-03-12T00:59:27;5.50;;;5.10;;
19038;SDS011;9652;49.014;12.052;2023-03-12T01:01:55;5.70;;;5.33;;
19038;SDS011;9652;49.014;12.052;2023-03-12T01:04:22;5.07;;;4.67;;
19038;SDS011;9652;49.014;12.052;2023-03-12T01:06:50;5.77;;;5.23;;
19038;SDS011;9652;49.014;12.052;2023-03-12T01:09:17;5.67;;;5.27;;
19038;SDS011;9652;49.014;12.052;2023-03-12T01:11:44;5.63;;;5.23;;
19038;SDS011;9652;49.014;12.052;2023-03-12T01:14:11;5.70;;;5.30;;
19038;SDS011;9652;49.014;12.052;2023-03-12T01:16:38;5.60;;;5.17;;
19038;SDS011;9652;49.014;12.052;2023-03-12T01:19:07;6.47;;;5.97;;
19038;SDS011;9652;49.014;12.052;2023-03-12T01:21:34;5.20;;;4.80;;
19038;SDS011;9652;49.014;12.052;2023-03-12T01:24:01;5.80;;;5.33;;
19038;SDS011;9652;49.014;12.052;2023-03-12T01:26:28;6.43;;;5.87;;
19038;SDS011;9652;49.014;12.052;2023-03-12T01:28:55;5.50;;;5.13;;
19038;SDS011;9652;49.014;12.052;2023-03-12T01:31:22;5.50;;;5.10;;
19038;SDS011;9652;49.014;12.052;2023-03-12T01:33:50;5.70;;;5.30;;
19038;SDS011;9652;49.014;12.052;2023-03-12T01:36:20;4.73;;;4.40;;
19038;SDS011;9652;49.014;12.052;2023-03-12T01:38:50;5.47;;;5.07;;
19038;SDS011;9652;49.014;12.052;2023-03-12T01:41:19;6.20;;;5.70;;
19038;SDS011;9652;49.014;12.052;2023-03-12T01:43:48;6.00;;;5.50;;
19038;SDS011;9652;49.014;12.052;2023-03-12T01:46:24;6.43;;;5.77;;
19038;SDS011;9652;49.014;12.052;2023-03-12T01:48:56;6.17;;;5.73;;
19038;SDS011;9652;49.014;12.052;2023-03-12T01:51:34;6.33;;;5.87;;
19038;SDS011;9652;49.014;12.052;2023-03-12T01:54:07;6.30;;;5.70;;
19038;SDS011;9652;49.014;12.052;2023-03-12T01:56:40;5.63;;;5.13;;
19038;SDS011;9652;49.014;12.052;2023-03-12T01:59:11;6.73;;;6.10;;
19038;SDS011;9652;49.014;12.052;2023-03-12T02:01:44;6.57;;;6.07;;
19038;SDS011;9652;49.014;12.052;2023-03-12T02:04:12;6.50;;;5.90;;
19038;SDS011;9652;49.014;12.052;2023-03-12T02:06:47;6.30;;;5.80;;
19038;SDS011;9652;49.014;12.052;2023-03-12T02:09:22;5.87;;;5.43;;
19038;SDS011;9652;49.014;12.052;2023-03-12T02:11:50;6.17;;;5.67;;
19038;SDS011;9652;49.014;12.052;2023-03-12T02:14:18;5.37;;;5.00;;
19038;SDS011;9652;49.014;12.052;2023-03-12T02:16:46;5.83;;;5.33;;
19038;SDS011;9652;49.014;12.052;2023-03-12T02:19:15;7.13;;;5.70;;
19038;SDS011;9652;49.014;12.052;2023-03-12T02:21:54;6.87;;;5.70;;
19038;SDS011;9652;49.014;12.052;2023-03-12T02:24:25;5.80;;;5.20;;
19038;SDS011;9652;49.014;12.052;2023-03-12T02:27:02;6.30;;;5.80;;
19038;SDS011;9652;49.014;12.052;2023-03-12T02:29:32;5.80;;;5.40;;
19038;SDS011;9652;49.014;12.052;2023-03-12T02:32:03;4.93;;;4.60;;
19038;SDS011;9652;49.014;12.052;2023-03-12T02:34:33;5.50;;;5.10;;
19038;SDS011;9652;49.014;12.052;2023-03-12T02:37:00;6.37;;;5.87;;
19038;SDS011;9652;49.014;12.052;2023-03-12T02:39:27;7.10;;;5.67;;
19038;SDS011;9652;49.014;12.052;2023-03-12T02:41:56;6.00;;;5.63;;
19038;SDS011;9652;49.014;12.052;2023-03-12T02:44:27;6.00;;;5.53;;
19038;SDS011;9652;49.014;12.052;2023-03-12T02:46:59;6.33;;;5.73;;
19038;SDS011;9652;49.014;12.052;2023-03-12T02:49:28;5.30;;;4.90;;
19038;SDS011;9652;49.014;12.052;2023-03-12T02:51:58;6.37;;;5.87;;
19038;SDS011;9652;49.014;12.052;2023-03-12T02:54:27;6.10;;;5.70;;
19038;SDS011;9652;49.014;12.052;2023-03-12T02:56:55;5.97;;;5.47;;
19038;SDS011;9652;49.014;12.052;2023-03-12T02:59:24;6.00;;;5.50;;
19038;SDS011;9652;49.014;12.052;2023-03-12T03:01:57;6.33;;;5.93;;
19038;SDS011;9652;49.014;12.052;2023-03-12T03:04:26;6.83;;;6.20;;
19038;SDS011;9652;49.014;12.052;2023-03-12T03:06:56;6.40;;;5.80;;
19038;SDS011;9652;49.014;12.052;2023-03-12T03:09:24;6.03;;;5.63;;
19038;SDS011;9652;49.014;12.052;2023-03-12T03:11:51;6.47;;;5.97;;
19038;SDS011;9652;49.014;12.052;2023-03-12T03:14:19;6.30;;;5.70;;
19038;SDS011;9652;49.014;12.052;2023-03-12T03:16:50;5.50;;;5.00;;
19038;SDS011;9652;49.014;12.052;2023-03-12T03:19:20;5.83;;;5.47;;
19038;SDS011;9652;49.014;12.052;2023-03-12T03:21:48;5.70;;;5.23;;
19038;SDS011;9652;49.014;12.052;2023-03-12T03:24:15;6.43;;;5.83;;
19038;SDS011;9652;49.014;12.052;2023-03-12T03:26:42;7.67;;;6.97;;
19038;SDS011;9652;49.014;12.052;2023-03-12T03:29:09;6.43;;;5.93;;
19038;SDS011;9652;49.014;12.052;2023-03-12T03:31:36;6.47;;;5.97;;
19038;SDS011;9652;49.014;12.052;2023-03-12T03:34:05;6.43;;;5.93;;
19038;SDS011;9652;49.014;12.052;2023-03-12T03:36:32;6.03;;;5.53;;
19038;SDS011;9652;49.014;12.052;2023-03-12T03:39:07;6.33;;;5.83;;
19038;SDS011;9652;49.014;12.052;2023-03-12T03:41:34;6.43;;;5.93;;
19038;SDS011;9652;49.014;12.052;2023-03-12T03:44:01;5.77;;;5.07;;
19038;SDS011;9652;49.014;12.052;2023-03-12T03:46:30;5.73;;;5.33;;
19038;SDS011;9652;49.014;12.052;2023-03-12T03:49:02;5.93;;;5.43;;
19038;SDS011;9652;49.014;12.052;2023-03-12T03:51:33;7.33;;;4.93;;
19038;SDS011;9652;49.014;12.052;2023-03-12T03:54:05;5.53;;;5.03;;
19038;SDS011;9652;49.014;12.052;2023-03-12T03:56:32;6.60;;;6.00;;
19038;SDS011;9652;49.014;12.052;2023-03-12T03:59:01;5.43;;;5.03;;
19038;SDS011;9652;49.014;12.052;2023-03-12T04:01:29;5.03;;;4.63;;
19038;SDS011;9652;49.014;12.052;2023-03-12T04:03:58;4.93;;;4.43;;
19038;SDS011;9652;49.014;12.052;2023-03-12T04:06:26;5.43;;;4.97;;
19038;SDS011;9652;49.014;12.052;2023-03-12T04:08:56;5.53;;;5.13;;
19038;SDS011;9652;49.014;12.052;2023-03-12T04:11:26;5.73;;;5.23;;
19038;SDS011;9652;49.014;12.052;2023-03-12T04:13:55;5.50;;;5.10;;
19038;SDS011;9652;49.014;12.052;2023-03-12T04:16:26;5.53;;;5.07;;
19038;SDS011;9652;49.014;12.052;2023-03-12T04:18:54;5.13;;;4.73;;
19038;SDS011;9652;49.014;12.052;2023-03-12T04:21:22;5.50;;;5.17;;
19038;SDS011;9652;49.014;12.052;2023-03-12T04:23:50;6.03;;;5.43;;
19038;SDS011;9652;49.014;12.052;2023-03-12T04:26:21;6.20;;;5.70;;
19038;SDS011;9652;49.014;12.052;2023-03-12T04:28:49;5.77;;;5.27;;
19038;SDS011;9652;49.014;12.052;2023-03-12T04:31:16;5.30;;;4.90;;
19038;SDS011;9652;49.014;12.052;2023-03-12T04:33:48;5.97;;;5.37;;
19038;SDS011;9652;49.014;12.052;2023-03-12T04:36:16;6.43;;;5.87;;
19038;SDS011;9652;49.014;12.052;2023-03-12T04:38:46;6.23;;;5.27;;
19038;SDS011;9652;49.014;12.052;2023-03-12T04:41:15;5.87;;;5.30;;
19038;SDS011;9652;49.014;12.052;2023-03-12T04:43:49;6.27;;;5.57;;
19038;SDS011;9652;49.014;12.052;2023-03-12T04:46:17;6.40;;;5.77;;
19038;SDS011;9652;49.014;12.052;2023-03-12T04:48:45;6.37;;;5.87;;
19038;SDS011;9652;49.014;12.052;2023-03-12T04:51:14;6.13;;;5.63;;
19038;SDS011;9652;49.014;12.052;2023-03-12T04:53:41;5.53;;;5.07;;
19038;SDS011;9652;49.014;12.052;2023-03-12T04:56:10;6.53;;;5.93;;
19038;SDS011;9652;49.014;12.052;2023-03-12T04:58:38;6.17;;;5.63;;
19038;SDS011;9652;49.014;12.052;2023-03-12T05:01:10;6.90;;;6.30;;
19038;SDS011;9652;49.014;12.052;2023-03-12T05:03:47;6.50;;;5.90;;
19038;SDS011;9652;49.014;12.052;2023-03-12T05:06:14;6.20;;;5.40;;
19038;SDS011;9652;49.014;12.052;2023-03-12T05:08:42;6.87;;;6.27;;
19038;SDS011;9652;49.014;12.052;2023-03-12T05:11:09;6.00;;;5.50;;
19038;SDS011;9652;49.014;12.052;2023-03-12T05:13:37;6.00;;;5.50;;
19038;SDS011;9652;49.014;12.052;2023-03-12T05:16:04;6.27;;;5.77;;
19038;SDS011;9652;49.014;12.052;2023-03-12T05:18:33;6.33;;;5.73;;
19038;SDS011;9652;49.014;12.052;2023-03-12T05:21:02;5.97;;;5.47;;
19038;SDS011;9652;49.014;12.052;2023-03-12T05:23:38;5.87;;;5.27;;
19038;SDS011;9652;49.014;12.052;2023-03-12T05:26:13;6.60;;;5.90;;
19038;SDS011;9652;49.014;12.052;2023-03-12T05:28:43;5.93;;;5.43;;
19038;SDS011;9652;49.014;12.052;2023-03-12T05:31:11;6.40;;;5.80;;
19038;SDS011;9652;49.014;12.052;2023-03-12T05:33:44;7.17;;;5.87;;
19038;SDS011;9652;49.014;12.052;2023-03-12T05:36:13;5.43;;;4.93;;
19038;SDS011;9652;49.014;12.052;2023-03-12T05:38:43;6.27;;;5.67;;
19038;SDS011;9652;49.014;12.052;2023-03-12T05:41:16;6.07;;;5.57;;
19038;SDS011;9652;49.014;12.052;2023-03-12T05:43:47;5.43;;;4.90;;
19038;SDS011;9652;49.014;12.052;2023-03-12T05:46:16;6.17;;;5.57;;
19038;SDS011;9652;49.014;12.052;2023-03-12T05:48:45;5.60;;;5.10;;
19038;SDS011;9652;49.014;12.052;2023-03-12T05:51:13;5.27;;;4.87;;
19038;SDS011;9652;49.014;12.052;2023-03-12T05:53:40;5.33;;;4.83;;
19038;SDS011;9652;49.014;12.052;2023-03-12T05:56:09;5.93;;;5.53;;
19038;SDS011;9652;49.014;12.052;2023-03-12T05:58:39;7.43;;;6.77;;
19038;SDS011;9652;49.014;12.052;2023-03-12T06:01:11;5.97;;;5.47;;
19038;SDS011;9652;49.014;12.052;2023-03-12T06:03:43;6.77;;;6.10;;
19038;SDS011;9652;49.014;12.052;2023-03-12T06:06:11;6.83;;;6.23;;
19038;SDS011;9652;49.014;12.052;2023-03-12T06:08:39;6.63;;;5.27;;
19038;SDS011;9652;49.014;12.052;2023-03-12T06:11:10;6.37;;;5.83;;
19038;SDS011;9652;49.014;12.052;2023-03-12T06:13:37;6.00;;;5.50;;
19038;SDS011;9652;49.014;12.052;2023-03-12T06:16:06;6.30;;;5.70;;
19038;SDS011;9652;49.014;12.052;2023-03-12T06:18:36;6.60;;;6.10;;
19038;SDS011;9652;49.014;12.052;2023-03-12T06:21:09;5.23;;;4.83;;
19038;SDS011;9652;49.014;12.052;2023-03-12T06:23:39;6.43;;;5.87;;
19038;SDS011;9652;49.014;12.052;2023-03-12T06:26:12;5.50;;;5.10;;
19038;SDS011;9652;49.014;12.052;2023-03-12T06:28:43;5.10;;;4.70;;
19038;SDS011;9652;49.014;12.052;2023-03-12T06:31:11;5.60;;;5.10;;
19038;SDS011;9652;49.014;12.052;2023-03-12T06:33:38;6.50;;;5.27;;
19038;SDS011;9652;49.014;12.052;2023-03-12T06:36:07;6.53;;;5.57;;
19038;SDS011;9652;49.014;12.052;2023-03-12T06:38:36;6.00;;;4.73;;
19038;SDS011;9652;49.014;12.052;2023-03-12T06:41:04;5.40;;;5.00;;
19038;SDS011;9652;49.014;12.052;2023-03-12T06:43:35;5.83;;;5.33;;
19038;SDS011;9652;49.014;12.052;2023-03-12T06:46:04;5.60;;;5.07;;
19038;SDS011;9652;49.014;12.052;2023-03-12T06:48:33;5.50;;;4.83;;
19038;SDS011;9652;49.014;12.052;2023-03-12T06:51:01;5.63;;;5.13;;
19038;SDS011;9652;49.014;12.052;2023-03-12T06:53:30;5.57;;;5.10;;
19038;SDS011;9652;49.014;12.052;2023-03-12T06:55:58;5.47;;;4.97;;
19038;SDS011;9652;49.014;12.052;2023-03-12T06:58:25;5.00;;;4.53;;
19038;SDS011;9652;49.014;12.052;2023-03-12T07:00:52;5.40;;;5.00;;
19038;SDS011;9652;49.014;12.052;2023-03-12T07:03:20;4.97;;;4.57;;
19038;SDS011;9652;49.014;12.052;2023-03-12T07:05:47;5.33;;;4.70;;
19038;SDS011;9652;49.014;12.052;2023-03-12T07:08:16;8.17;;;5.37;;
19038;SDS011;9652;49.014;12.052;2023-03-12T07:10:45;5.10;;;4.60;;
19038;SDS011;9652;49.014;12.052;2023-03-12T07:13:12;9.63;;;5.00;;
19038;SDS011;9652;49.014;12.052;2023-03-12T07:15:40;5.60;;;5.10;;
19038;SDS011;9652;49.014;12.052;2023-03-12T07:18:10;4.97;;;4.57;;
19038;SDS011;9652;49.014;12.052;2023-03-12T07:20:38;5.20;;;4.80;;
19038;SDS011;9652;49.014;12.052;2023-03-12T07:23:07;4.97;;;4.60;;
19038;SDS011;9652;49.014;12.052;2023-03-12T07:25:36;4.73;;;4.40;;
19038;SDS011;9652;49.014;12.052;2023-03-12T07:28:07;5.00;;;4.57;;
19038;SDS011;9652;49.014;12.052;2023-03-12T07:30:35;5.20;;;4.30;;
19038;SDS011;9652;49.014;12.052;2023-03-12T07:33:04;4.87;;;4.57;;
19038;SDS011;9652;49.014;12.052;2023-03-12T07:35:33;4.97;;;4.57;;
19038;SDS011;9652;49.014;12.052;2023-03-12T07:38:02;5.23;;;4.77;;
19038;SDS011;9652;49.014;12.052;2023-03-12T07:40:30;6.40;;;4.80;;
19038;SDS011;9652;49.014;12.052;2023-03-12T07:42:57;5.77;;;4.67;;
19038;SDS011;9652;49.014;12.052;2023-03-12T07:45:26;5.53;;;5.03;;
19038;SDS011;9652;49.014;12.052;2023-03-12T07:47:54;5.17;;;4.70;;
19038;SDS011;9652;49.014;12.052;2023-03-12T07:50:22;4.90;;;4.50;;
19038;SDS011;9652;49.014;12.052;2023-03-12T07:52:49;4.60;;;4.30;;
19038;SDS011;9652;49.014;12.052;2023-03-12T07:55:16;5.97;;;5.37;;
19038;SDS011;9652;49.014;12.052;2023-03-12T07:57:43;5.07;;;4.67;;
19038;SDS011;9652;49.014;12.052;2023-03-12T08:00:11;5.63;;;5.00;;
19038;SDS011;9652;49.014;12.052;2023-03-12T08:02:42;5.47;;;5.00;;
19038;SDS011;9652;49.014;12.052;2023-03-12T08:05:09;5.40;;;4.90;;
19038;SDS011;9652;49.014;12.052;2023-03-12T08:07:36;5.30;;;4.80;;
19038;SDS011;9652;49.014;12.052;2023-03-12T08:10:05;4.57;;;4.17;;
19038;SDS011;9652;49.014;12.052;2023-03-12T08:12:34;5.13;;;4.63;;
19038;SDS011;9652;49.014;12.052;2023-03-12T08:15:02;4.70;;;4.30;;
19038;SDS011;9652;49.014;12.052;2023-03-12T08:17:30;5.43;;;4.80;;
19038;SDS011;9652;49.014;12.052;2023-03-12T08:19:58;4.83;;;4.43;;
19038;SDS011;9652;49.014;12.052;2023-03-12T08:22:25;5.27;;;4.80;;
19038;SDS011;9652;49.014;12.052;2023-03-12T08:24:52;6.77;;;5.07;;
19038;SDS011;9652;49.014;12.052;2023-03-12T08:27:19;7.73;;;4.50;;
19038;SDS011;9652;49.014;12.052;2023-03-12T08:29:46;5.27;;;4.87;;
19038;SDS011;9652;49.014;12.052;2023-03-12T08:32:14;5.07;;;4.67;;
19038;SDS011;9652;49.014;12.052;2023-03-12T08:34:41;5.10;;;4.60;;
19038;SDS011;9652;49.014;12.052;2023-03-12T08:37:09;4.80;;;4.37;;
19038;SDS011;9652;49.014;12.052;2023-03-12T08:39:36;4.90;;;4.50;;
19038;SDS011;9652;49.014;12.052;2023-03-12T08:42:03;5.80;;;5.40;;
19038;SDS011;9652;49.014;12.052;2023-03-12T08:44:31;4.77;;;4.37;;
19038;SDS011;9652;49.014;12.052;2023-03-12T08:46:59;5.13;;;4.63;;
19038;SDS011;9652;49.014;12.052;2023-03-12T08:49:26;5.60;;;5.10;;
19038;SDS011;9652;49.014;12.052;2023-03-12T08:51:53;4.73;;;4.27;;
19038;SDS011;9652;49.014;12.052;2023-03-12T08:54:21;4.90;;;4.40;;
19038;SDS011;9652;49.014;12.052;2023-03-12T08:56:49;5.03;;;4.63;;
19038;SDS011;9652;49.014;12.052;2023-03-12T08:59:16;4.17;;;3.77;;
19038;SDS011;9652;49.014;12.052;2023-03-12T09:01:46;4.53;;;4.13;;
19038;SDS011;9652;49.014;12.052;2023-03-12T09:04:14;5.83;;;4.23;;
19038;SDS011;9652;49.014;12.052;2023-03-12T09:06:42;3.80;;;3.50;;
19038;SDS011;9652;49.014;12.052;2023-03-12T09:09:09;4.10;;;3.73;;
19038;SDS011;9652;49.014;12.052;2023-03-12T09:11:38;4.13;;;3.77;;
19038;SDS011;9652;49.014;12.052;2023-03-12T09:14:05;4.17;;;3.77;;
19038;SDS011;9652;49.014;12.052;2023-03-12T09:16:33;5.10;;;3.60;;
19038;SDS011;9652;49.014;12.052;2023-03-12T09:19:00;3.90;;;3.60;;
19038;SDS011;9652;49.014;12.052;2023-03-12T09:21:28;3.73;;;3.37;;
19038;SDS011;9652;49.014;12.052;2023-03-12T09:23:55;3.53;;;3.23;;
19038;SDS011;9652;49.014;12.052;2023-03-12T09:26:22;3.77;;;3.47;;
19038;SDS011;9652;49.014;12.052;2023-03-12T09:28:51;3.97;;;3.30;;
19038;SDS011;9652;49.014;12.052;2023-03-12T09:31:18;3.90;;;3.60;;
19038;SDS011;9652;49.014;12.052;2023-03-12T09:33:45;3.87;;;3.57;;
19038;SDS011;9652;49.014;12.052;2023-03-12T09:36:12;4.07;;;3.53;;
19038;SDS011;9652;49.014;12.052;2023-03-12T09:38:39;3.40;;;3.10;;
19038;SDS011;9652;49.014;12.052;2023-03-12T09:41:12;4.77;;;3.10;;
19038;SDS011;9652;49.014;12.052;2023-03-12T09:43:46;3.40;;;3.10;;
19038;SDS011;9652;49.014;12.052;2023-03-12T09:46:24;2.87;;;2.60;;
19038;SDS011;9652;49.014;12.052;2023-03-12T09:48:57;3.17;;;2.87;;
19038;SDS011;9652;49.014;12.052;2023-03-12T09:51:31;3.73;;;3.33;;
19038;SDS011;9652;49.014;12.052;2023-03-12T09:54:04;4.43;;;2.90;;
19038;SDS011;9652;49.014;12.052;2023-03-12T09:56:43;3.90;;;2.73;;
19038;SDS011;9652;49.014;12.052;2023-03-12T09:59:12;3.03;;;2.83;;
19038;SDS011;9652;49.014;12.052;2023-03-12T10:01:40;3.30;;;3.00;;
19038;SDS011;9652;49.014;12.052;2023-03-12T10:07:07;3.73;;;3.43;;
19038;SDS011;9652;49.014;12.052;2023-03-12T10:09:46;2.73;;;2.53;;
19038;SDS011;9652;49.014;12.052;2023-03-12T10:12:41;2.93;;;2.73;;
19038;SDS011;9652;49.014;12.052;2023-03-12T10:15:29;3.57;;;3.27;;
19038;SDS011;9652;49.014;12.052;2023-03-12T10:18:13;3.30;;;3.00;;
19038;SDS011;9652;49.014;12.052;2023-03-12T10:23:50;3.43;;;3.13;;
19038;SDS011;9652;49.014;12.052;2023-03-12T10:26:33;3.57;;;3.27;;
19038;SDS011;9652;49.014;12.052;2023-03-12T10:29:07;5.20;;;3.27;;
19038;SDS011;9652;49.014;12.052;2023-03-12T10:31:45;4.17;;;3.87;;
19038;SDS011;9652;49.014;12.052;2023-03-12T10:34:20;3.87;;;3.03;;
19038;SDS011;9652;49.014;12.052;2023-03-12T10:36:57;3.67;;;3.33;;
19038;SDS011;9652;49.014;12.052;2023-03-12T10:39:30;3.57;;;3.27;;
19038;SDS011;9652;49.014;12.052;2023-03-12T10:41:57;5.67;;;3.50;;
19038;SDS011;9652;49.014;12.052;2023-03-12T10:44:26;3.47;;;2.70;;
19038;SDS011;9652;49.014;12.052;2023-03-12T10:47:00;5.07;;;3.97;;
19038;SDS011;9652;49.014;12.052;2023-03-12T10:49:34;3.37;;;3.07;;
19038;SDS011;9652;49.014;12.052;2023-03-12T10:52:04;5.77;;;3.10;;
19038;SDS011;9652;49.014;12.052;2023-03-12T10:54:40;3.90;;;3.50;;
19038;SDS011;9652;49.014;12.052;2023-03-12T10:57:11;3.47;;;2.87;;
19038;SDS011;9652;49.014;12.052;2023-03-12T10:59:41;7.23;;;3.53;;
19038;SDS011;9652;49.014;12.052;2023-03-12T11:02:32;3.23;;;2.77;;
19038;SDS011;9652;49.014;12.052;2023-03-12T11:05:06;3.63;;;3.30;;
19038;SDS011;9652;49.014;12.052;2023-03-12T11:07:47;3.77;;;3.00;;
19038;SDS011;9652;49.014;12.052;2023-03-12T11:10:16;4.70;;;3.40;;
19038;SDS011;9652;49.014;12.052;2023-03-12T11:12:54;3.40;;;3.10;;
19038;SDS011;9652;49.014;12.052;2023-03-12T11:15:29;3.43;;;3.13;;
19038;SDS011;9652;49.014;12.052;2023-03-12T11:18:19;4.63;;;3.73;;
19038;SDS011;9652;49.014;12.052;2023-03-12T11:20:53;3.87;;;3.47;;
19038;SDS011;9652;49.014;12.052;2023-03-12T11:23:24;4.80;;;3.70;;
19038;SDS011;9652;49.014;12.052;2023-03-12T11:25:55;4.17;;;3.77;;
19038;SDS011;9652;49.014;12.052;2023-03-12T11:28:30;4.77;;;3.47;;
19038;SDS011;9652;49.014;12.052;2023-03-12T11:31:05;4.83;;;3.57;;
19038;SDS011;9652;49.014;12.052;2023-03-12T11:33:42;3.80;;;3.47;;
19038;SDS011;9652;49.014;12.052;2023-03-12T11:36:13;3.47;;;3.17;;
19038;SDS011;9652;49.014;12.052;2023-03-12T11:38:57;5.10;;;3.57;;
19038;SDS011;9652;49.014;12.052;2023-03-12T11:41:40;4.80;;;3.60;;
19038;SDS011;9652;49.014;12.052;2023-03-12T11:44:25;6.00;;;3.43;;
19038;SDS011;9652;49.014;12.052;2023-03-12T11:47:06;4.73;;;3.50;;
19038;SDS011;9652;49.014;12.052;2023-03-12T11:49:55;5.13;;;3.93;;
19038;SDS011;9652;49.014;12.052;2023-03-12T11:52:43;5.27;;;4.20;;
19038;SDS011;9652;49.014;12.052;2023-03-12T11:55:37;4.77;;;3.43;;
19038;SDS011;9652;49.014;12.052;2023-03-12T11:58:22;5.30;;;4.23;;
19038;SDS011;9652;49.014;12.052;2023-03-12T12:01:05;6.60;;;3.70;;
19038;SDS011;9652;49.014;12.052;2023-03-12T12:04:02;6.03;;;4.07;;
19038;SDS011;9652;49.014;12.052;2023-03-12T12:07:13;4.30;;;3.80;;
19038;SDS011;9652;49.014;12.052;2023-03-12T12:09:50;4.67;;;3.87;;
19038;SDS011;9652;49.014;12.052;2023-03-12T12:12:35;4.37;;;3.63;;
19038;SDS011;9652;49.014;12.052;2023-03-12T12:15:20;4.10;;;3.70;;
19038;SDS011;9652;49.014;12.052;2023-03-12T12:17:58;4.10;;;3.70;;
19038;SDS011;9652;49.014;12.052;2023-03-12T12:20:42;6.10;;;4.17;;
19038;SDS011;9652;49.014;12.052;2023-03-12T12:23:24;4.43;;;4.03;;
19038;SDS011;9652;49.014;12.052;2023-03-12T12:26:06;5.33;;;4.57;;
19038;SDS011;9652;49.014;12.052;2023-03-12T12:31:44;4.87;;;4.47;;
19038;SDS011;9652;49.014;12.052;2023-03-12T12:34:26;5.77;;;3.90;;
19038;SDS011;9652;49.014;12.052;2023-03-12T12:37:29;4.63;;;4.20;;
19038;SDS011;9652;49.014;12.052;2023-03-12T12:40:11;5.33;;;4.00;;
19038;SDS011;9652;49.014;12.052;2023-03-12T12:42:48;4.67;;;3.97;;
19038;SDS011;9652;49.014;12.052;2023-03-12T12:45:26;4.60;;;4.13;;
19038;SDS011;9652;49.014;12.052;2023-03-12T12:47:56;5.23;;;3.93;;
19038;SDS011;9652;49.014;12.052;2023-03-12T12:50:31;5.13;;;3.90;;
19038;SDS011;9652;49.014;12.052;2023-03-12T12:53:06;4.67;;;3.97;;
19038;SDS011;9652;49.014;12.052;2023-03-12T12:55:49;4.53;;;3.93;;
19038;SDS011;9652;49.014;12.052;2023-03-12T12:58:39;4.93;;;4.40;;
19038;SDS011;9652;49.014;12.052;2023-03-12T13:01:28;4.40;;;4.00;;
19038;SDS011;9652;49.014;12.052;2023-03-12T13:03:59;5.43;;;4.07;;
19038;SDS011;9652;49.014;12.052;2023-03-12T13:09:35;4.70;;;4.03;;
19038;SDS011;9652;49.014;12.052;2023-03-12T13:12:08;5.37;;;4.17;;
19038;SDS011;9652;49.014;12.052;2023-03-12T13:14:41;5.33;;;4.60;;
19038;SDS011;9652;49.014;12.052;2023-03-12T13:17:21;5.80;;;4.70;;
19038;SDS011;9652;49.014;12.052;2023-03-12T13:19:59;4.77;;;4.27;;
19038;SDS011;9652;49.014;12.052;2023-03-12T13:22:43;5.23;;;4.73;;
19038;SDS011;9652;49.014;12.052;2023-03-12T13:25:28;6.93;;;4.53;;
19038;SDS011;9652;49.014;12.052;2023-03-12T13:28:28;5.17;;;4.63;;
19038;SDS011;9652;49.014;12.052;2023-03-12T13:37:17;5.00;;;4.43;;
19038;SDS011;9652;49.014;12.052;2023-03-12T13:40:01;4.90;;;4.40;;
19038;SDS011;9652;49.014;12.052;2023-03-12T13:49:11;5.10;;;4.60;;
19038;SDS011;9652;49.014;12.052;2023-03-12T13:51:52;5.40;;;4.43;;
19038;SDS011;9652;49.014;12.052;2023-03-12T13:54:36;5.53;;;4.77;;
19038;SDS011;9652;49.014;12.052;2023-03-12T13:57:12;4.83;;;4.40;;
19038;SDS011;9652;49.014;12.052;2023-03-12T13:59:57;6.10;;;5.10;;
19038;SDS011;9652;49.014;12.052;2023-03-12T14:02:26;5.67;;;4.93;;
19038;SDS011;9652;49.014;12.052;2023-03-12T14:05:01;5.47;;;4.97;;
19038;SDS011;9652;49.014;12.052;2023-03-12T14:07:46;5.03;;;4.53;;
19038;SDS011;9652;49.014;12.052;2023-03-12T14:10:32;5.50;;;4.60;;
19038;SDS011;9652;49.014;12.052;2023-03-12T14:16:29;4.40;;;4.00;;
19038;SDS011;9652;49.014;12.052;2023-03-12T14:19:05;5.57;;;4.60;;
19038;SDS011;9652;49.014;12.052;2023-03-12T14:21:38;5.67;;;5.07;;
19038;SDS011;9652;49.014;12.052;2023-03-12T14:24:14;6.67;;;5.07;;
19038;SDS011;9652;49.014;12.052;2023-03-12T14:26:50;7.00;;;4.53;;
19038;SDS011;9652;49.014;12.052;2023-03-12T14:29:19;5.40;;;4.90;;
19038;SDS011;9652;49.014;12.052;2023-03-12T14:31:55;5.27;;;4.83;;
19038;SDS011;9652;49.014;12.052;2023-03-12T14:34:29;6.00;;;4.60;;
19038;SDS011;9652;49.014;12.052;2023-03-12T14:37:01;7.17;;;4.70;;
19038;SDS011;9652;49.014;12.052;2023-03-12T14:39:40;5.50;;;5.00;;
19038;SDS011;9652;49.014;12.052;2023-03-12T14:42:17;5.77;;;5.13;;
19038;SDS011;9652;49.014;12.052;2023-03-12T14:44:53;5.50;;;4.97;;
19038;SDS011;9652;49.014;12.052;2023-03-12T14:47:27;8.20;;;4.90;;
19038;SDS011;9652;49.014;12.052;2023-03-12T14:49:54;5.80;;;5.20;;
19038;SDS011;9652;49.014;12.052;2023-03-12T14:52:24;5.37;;;4.77;;
19038;SDS011;9652;49.014;12.052;2023-03-12T14:54:54;7.47;;;5.67;;
19038;SDS011;9652;49.014;12.052;2023-03-12T14:57:24;5.73;;;5.13;;
19038;SDS011;9652;49.014;12.052;2023-03-12T14:59:51;5.47;;;4.97;;
19038;SDS011;9652;49.014;12.052;2023-03-12T15:02:20;5.53;;;5.03;;
19038;SDS011;9652;49.014;12.052;2023-03-12T15:04:50;6.13;;;5.30;;
19038;SDS011;9652;49.014;12.052;2023-03-12T15:07:22;6.53;;;4.23;;
19038;SDS011;9652;49.014;12.052;2023-03-12T15:09:54;5.40;;;4.90;;
19038;SDS011;9652;49.014;12.052;2023-03-12T15:12:22;5.73;;;5.13;;
19038;SDS011;9652;49.014;12.052;2023-03-12T15:14:55;8.13;;;5.37;;
19038;SDS011;9652;49.014;12.052;2023-03-12T15:17:30;5.33;;;4.80;;
19038;SDS011;9652;49.014;12.052;2023-03-12T15:19:59;5.57;;;4.97;;
19038;SDS011;9652;49.014;12.052;2023-03-12T15:22:33;8.63;;;5.43;;
19038;SDS011;9652;49.014;12.052;2023-03-12T15:25:02;6.47;;;5.20;;
19038;SDS011;9652;49.014;12.052;2023-03-12T15:27:45;6.43;;;5.40;;
19038;SDS011;9652;49.014;12.052;2023-03-12T15:30:21;6.03;;;5.43;;
19038;SDS011;9652;49.014;12.052;2023-03-12T15:33:08;6.33;;;5.03;;
19038;SDS011;9652;49.014;12.052;2023-03-12T15:35:58;6.40;;;5.20;;
19038;SDS011;9652;49.014;12.052;2023-03-12T15:38:32;5.20;;;4.70;;
19038;SDS011;9652;49.014;12.052;2023-03-12T15:41:05;7.67;;;5.40;;
19038;SDS011;9652;49.014;12.052;2023-03-12T15:43:34;6.33;;;5.63;;